Alger, Michigan
Current Conditions -  °F | °C
As of 11:53 PM on Friday 31 Oct 2014 (Local Time) from KHTL Reporting Station
Overcast Overcast  
Wind Chill: 16°   Ceiling: 2900
Heat Index: 29°   Visibility: 10mi
Dew Point: 18°   Wind: 21mph
Humidity: 64%   Direction: 20°NNE
Pressure: 30.31"   Gusts: 28mph
Location:  44.13°N, 84.12°W
Report Text: KHTL 010353Z AUTO 02018G24KT 10SM OVC029 M02/M08 A3031 RMK AO2 SLP280 T10171078
Loading
Personal Weather Stations






























Interactive Weather Map
Tropical Storm Tracking
New forecast layout! Learn more

10-Day Weather Forecast

Advertisements
Track Severe Weather on mobile